createdAt,value
2018-09-20T00:00:51.859Z,99.90
2018-09-20T00:03:20.433Z,99.90
2018-09-20T00:05:48.976Z,99.90
2018-09-20T00:08:17.813Z,99.90
2018-09-20T00:10:46.363Z,99.90
2018-09-20T00:13:14.895Z,99.90
2018-09-20T00:15:43.486Z,99.90
2018-09-20T00:18:12.015Z,99.90
2018-09-20T00:20:40.651Z,99.90
2018-09-20T00:23:09.195Z,99.90
2018-09-20T00:25:37.727Z,99.90
2018-09-20T00:28:06.417Z,99.90
2018-09-20T00:30:34.979Z,99.90
2018-09-20T00:33:03.891Z,99.90
2018-09-20T00:35:32.454Z,99.90
2018-09-20T00:38:00.991Z,99.90
2018-09-20T00:40:29.531Z,99.90
2018-09-20T00:42:58.074Z,99.90
2018-09-20T00:45:26.622Z,99.90
2018-09-20T00:47:55.161Z,99.90
2018-09-20T00:50:23.863Z,99.90
2018-09-20T00:52:52.391Z,99.90
2018-09-20T00:55:20.915Z,99.90
2018-09-20T00:57:49.457Z,99.90
2018-09-20T01:00:18.005Z,99.90
2018-09-20T01:02:46.895Z,99.90
2018-09-20T01:05:15.427Z,99.90
2018-09-20T01:07:43.955Z,99.90
2018-09-20T01:10:12.579Z,99.90
2018-09-20T01:12:41.113Z,99.90
2018-09-20T01:15:09.663Z,99.90
2018-09-20T01:17:38.202Z,99.90
2018-09-20T01:20:07.167Z,99.90
2018-09-20T01:22:35.705Z,99.90
2018-09-20T01:25:04.279Z,99.90
2018-09-20T01:27:32.808Z,99.90
2018-09-20T01:30:01.363Z,99.90
2018-09-20T01:32:29.895Z,99.90
2018-09-20T01:34:58.430Z,99.90
2018-09-20T01:37:27.410Z,99.90
2018-09-20T01:39:55.942Z,99.90
2018-09-20T01:42:24.476Z,99.90
2018-09-20T01:44:53.012Z,99.90
2018-09-20T01:47:21.558Z,99.90
2018-09-20T01:49:50.087Z,99.90
2018-09-20T01:52:18.627Z,99.90
2018-09-20T01:54:47.299Z,99.90
2018-09-20T01:57:15.831Z,99.90
2018-09-20T01:59:44.393Z,99.90
2018-09-20T02:02:12.955Z,99.90
2018-09-20T02:04:41.503Z,99.90
2018-09-20T02:07:10.034Z,99.90
2018-09-20T02:09:38.561Z,99.90
2018-09-20T02:12:07.308Z,99.90
2018-09-20T02:14:35.867Z,99.90
2018-09-20T02:17:04.415Z,99.90
2018-09-20T02:19:32.982Z,99.90
2018-09-20T02:22:01.519Z,99.90
2018-09-20T02:24:30.047Z,99.90
2018-09-20T02:26:58.588Z,99.90
2018-09-20T02:29:27.188Z,99.90
2018-09-20T02:31:55.719Z,99.90
2018-09-20T02:34:24.254Z,99.90
2018-09-20T02:36:52.787Z,99.90
2018-09-20T02:39:21.311Z,99.90
2018-09-20T02:41:49.847Z,99.90
2018-09-20T02:44:18.395Z,99.90
2018-09-20T02:46:47.062Z,99.90
2018-09-20T02:49:15.587Z,99.90
2018-09-20T02:51:44.136Z,99.90
2018-09-20T02:54:12.772Z,99.90
2018-09-20T02:56:41.311Z,99.90
2018-09-20T02:59:10.020Z,99.90
2018-09-20T03:01:38.559Z,99.90
2018-09-20T03:04:07.327Z,99.90
2018-09-20T03:06:35.859Z,99.90
2018-09-20T03:09:06.150Z,99.90
2018-09-20T03:11:34.702Z,99.90
2018-09-20T03:14:03.247Z,99.90
2018-09-20T03:16:31.778Z,99.90
2018-09-20T03:19:00.362Z,99.90
2018-09-20T03:21:29.021Z,99.90
2018-09-20T03:23:57.602Z,99.90
2018-09-20T03:26:26.281Z,99.90
2018-09-20T03:28:54.833Z,99.90
2018-09-20T03:31:23.363Z,99.90
2018-09-20T03:33:51.892Z,99.90
2018-09-20T03:36:20.766Z,99.90
2018-09-20T03:38:49.604Z,99.90
2018-09-20T03:41:18.139Z,99.90
2018-09-20T03:43:46.671Z,99.90
2018-09-20T03:46:15.232Z,99.90
2018-09-20T03:48:43.773Z,99.90
2018-09-20T03:51:12.315Z,99.90
2018-09-20T03:53:40.872Z,99.90
2018-09-20T03:56:09.581Z,99.90
2018-09-20T03:58:38.118Z,99.90
2018-09-20T04:01:06.679Z,99.90
2018-09-20T04:03:35.232Z,99.90
2018-09-20T04:06:03.775Z,99.90
2018-09-20T04:08:32.315Z,99.90
2018-09-20T04:11:00.851Z,99.90
2018-09-20T04:13:29.573Z,99.90
2018-09-20T04:15:58.115Z,99.90
2018-09-20T04:18:26.651Z,99.90
2018-09-20T04:20:55.204Z,99.90
2018-09-20T04:23:23.752Z,99.90
2018-09-20T04:25:52.588Z,99.90
2018-09-20T04:28:21.136Z,99.90
2018-09-20T04:30:49.963Z,99.90
2018-09-20T04:33:18.497Z,99.90
2018-09-20T04:35:47.043Z,99.90
2018-09-20T04:38:15.582Z,99.90
2018-09-20T04:40:44.127Z,99.90
2018-09-20T04:43:12.706Z,99.90
2018-09-20T04:45:41.235Z,99.90
2018-09-20T04:48:09.775Z,99.90
2018-09-20T04:50:38.307Z,99.90
2018-09-20T04:53:06.866Z,99.90
2018-09-20T04:55:35.439Z,99.90
2018-09-20T04:58:03.977Z,99.90
2018-09-20T05:00:32.967Z,99.90
2018-09-20T05:03:01.532Z,99.90
2018-09-20T05:05:30.621Z,99.90
2018-09-20T05:07:59.194Z,99.90
2018-09-20T05:10:27.722Z,99.90
2018-09-20T05:12:56.599Z,99.90
2018-09-20T05:15:25.158Z,99.90
2018-09-20T05:17:53.687Z,99.90
2018-09-20T05:20:22.457Z,99.90
2018-09-20T05:22:51.098Z,99.90
2018-09-20T05:25:19.674Z,99.90
2018-09-20T05:27:48.299Z,99.90
2018-09-20T05:30:16.887Z,99.90
2018-09-20T05:32:45.591Z,99.90
2018-09-20T05:35:14.134Z,99.90
2018-09-20T05:37:42.727Z,99.90
2018-09-20T05:40:11.275Z,99.90
2018-09-20T05:42:39.839Z,99.90
2018-09-20T05:45:08.492Z,99.90
2018-09-20T05:47:37.039Z,99.90
2018-09-20T05:50:06.638Z,99.90
2018-09-20T05:52:35.171Z,99.90
2018-09-20T05:55:03.891Z,99.90
2018-09-20T05:57:32.427Z,99.90
2018-09-20T06:00:01.011Z,99.90
2018-09-20T06:02:29.906Z,99.90
2018-09-20T06:04:58.455Z,99.90
2018-09-20T06:07:27.045Z,99.90
2018-09-20T06:09:55.595Z,99.90
2018-09-20T06:12:24.119Z,99.90
2018-09-20T06:14:52.643Z,99.90
2018-09-20T06:17:21.194Z,99.90
2018-09-20T06:19:50.107Z,99.90
2018-09-20T06:22:18.647Z,99.90
2018-09-20T06:24:47.195Z,99.90
2018-09-20T06:27:15.771Z,99.90
2018-09-20T06:29:44.319Z,99.90
2018-09-20T06:32:12.978Z,99.90
2018-09-20T06:34:41.566Z,99.90
2018-09-20T06:37:10.271Z,99.90
2018-09-20T06:39:38.898Z,99.90
2018-09-20T06:42:07.491Z,99.90
2018-09-20T06:44:36.047Z,99.90
2018-09-20T06:47:04.651Z,99.90
2018-09-20T06:49:33.179Z,99.90
2018-09-20T06:52:01.722Z,99.90
2018-09-20T06:54:30.681Z,99.90
2018-09-20T06:56:59.266Z,99.90
2018-09-20T06:59:27.928Z,99.90
2018-09-20T07:01:56.543Z,99.90
2018-09-20T07:04:25.118Z,99.90
2018-09-20T07:06:53.656Z,99.90
2018-09-20T07:09:22.247Z,99.90
2018-09-20T07:11:50.846Z,99.90
2018-09-20T07:14:19.530Z,99.90
2018-09-20T07:16:48.077Z,97.30
2018-09-20T07:19:16.741Z,94.50
2018-09-20T07:21:45.179Z,91.20
2018-09-20T07:24:13.726Z,87.90
2018-09-20T07:26:42.343Z,85.50
2018-09-20T07:29:11.025Z,88.10
2018-09-20T07:31:39.575Z,83.30
2018-09-20T07:34:08.113Z,84.70
2018-09-20T07:36:36.760Z,83.30
2018-09-20T07:39:07.851Z,84.70
2018-09-20T07:41:36.843Z,82.90
2018-09-20T07:44:05.397Z,83.90
2018-09-20T07:46:33.962Z,82.00
2018-09-20T07:49:02.619Z,81.80
2018-09-20T07:51:31.174Z,80.40
2018-09-20T07:53:59.761Z,79.80
2018-09-20T07:56:28.341Z,79.10
2018-09-20T07:58:56.892Z,77.90
2018-09-20T08:01:25.462Z,77.50
2018-09-20T08:03:54.016Z,79.90
2018-09-20T08:06:22.819Z,77.60
2018-09-20T08:08:51.407Z,77.50
2018-09-20T08:11:20.024Z,76.60
2018-09-20T08:13:48.635Z,75.90
2018-09-20T08:16:17.207Z,74.50
2018-09-20T08:18:45.876Z,74.20
2018-09-20T08:21:14.536Z,72.40
2018-09-20T08:23:43.203Z,71.80
2018-09-20T08:26:11.750Z,70.20
2018-09-20T08:28:40.620Z,71.70
2018-09-20T08:31:09.298Z,72.30
2018-09-20T08:33:37.839Z,72.10
2018-09-20T08:36:06.546Z,71.70
2018-09-20T08:38:35.090Z,70.00
2018-09-20T08:41:03.983Z,68.80
2018-09-20T08:43:32.543Z,70.20
2018-09-20T08:46:01.109Z,69.90
2018-09-20T08:48:29.679Z,69.30
2018-09-20T08:50:58.250Z,68.80
2018-09-20T08:53:26.795Z,70.60
2018-09-20T08:55:55.376Z,68.70
2018-09-20T08:58:24.118Z,67.80
2018-09-20T09:00:52.683Z,67.00
2018-09-20T09:03:21.230Z,66.80
2018-09-20T09:05:49.791Z,67.10
2018-09-20T09:08:18.335Z,67.80
2018-09-20T09:10:46.936Z,66.50
2018-09-20T09:13:15.463Z,66.70
2018-09-20T09:15:44.007Z,66.60
2018-09-20T09:18:12.575Z,66.20
2018-09-20T09:20:41.114Z,66.30
2018-09-20T09:23:09.741Z,65.10
2018-09-20T09:25:38.315Z,67.10
2018-09-20T09:28:07.264Z,64.90
2018-09-20T09:30:35.853Z,64.50
2018-09-20T09:33:04.531Z,65.00
2018-09-20T09:35:33.100Z,61.00
2018-09-20T09:38:01.780Z,61.30
2018-09-20T09:40:30.340Z,60.90
2018-09-20T09:43:40.696Z,58.30
2018-09-20T09:46:09.531Z,59.20
2018-09-20T09:48:38.131Z,57.90
2018-09-20T09:51:06.735Z,59.00
2018-09-20T09:53:35.323Z,60.70
2018-09-20T09:56:03.870Z,59.10
2018-09-20T09:58:32.443Z,59.00
2018-09-20T10:01:01.003Z,59.30
2018-09-20T10:03:29.719Z,60.00
2018-09-20T10:05:58.287Z,60.50
2018-09-20T10:08:26.843Z,59.70
2018-09-20T10:10:55.383Z,59.30
2018-09-20T10:13:23.968Z,59.80
2018-09-20T10:15:52.512Z,60.00
2018-09-20T10:18:21.039Z,61.70
2018-09-20T10:20:49.918Z,61.90
2018-09-20T10:23:18.463Z,60.00
2018-09-20T10:25:47.086Z,61.00
2018-09-20T10:28:15.679Z,61.90
2018-09-20T10:30:44.216Z,61.40
2018-09-20T10:33:12.747Z,63.30
2018-09-20T10:35:41.319Z,63.70
2018-09-20T10:38:10.095Z,64.70
2018-09-20T10:40:38.631Z,61.70
2018-09-20T10:43:07.214Z,60.90
2018-09-20T10:45:35.751Z,60.80
2018-09-20T10:48:04.304Z,59.60
2018-09-20T10:50:32.880Z,59.10
2018-09-20T10:53:01.432Z,60.90
2018-09-20T10:55:29.967Z,61.00
2018-09-20T10:57:58.524Z,60.60
2018-09-20T11:00:27.264Z,59.80
2018-09-20T11:02:55.860Z,60.40
2018-09-20T11:05:24.386Z,61.00
2018-09-20T11:07:52.998Z,60.90
2018-09-20T11:10:21.779Z,59.60
2018-09-20T11:12:50.488Z,63.40
2018-09-20T11:15:19.079Z,61.00
2018-09-20T11:17:48.060Z,61.50
2018-09-20T11:20:16.605Z,61.90
2018-09-20T11:22:45.446Z,62.40
2018-09-20T11:25:14.159Z,62.90
2018-09-20T11:27:42.763Z,63.40
2018-09-20T11:30:11.311Z,63.70
2018-09-20T11:32:39.853Z,63.30
2018-09-20T11:35:08.919Z,62.20
2018-09-20T11:37:37.772Z,61.70
2018-09-20T11:40:06.691Z,62.60
2018-09-20T11:42:35.222Z,62.00
2018-09-20T11:45:03.802Z,61.90
2018-09-20T11:47:32.363Z,61.50
2018-09-20T11:50:01.038Z,62.70
2018-09-20T11:52:29.593Z,62.80
2018-09-20T11:54:58.297Z,62.70
2018-09-20T11:57:26.966Z,62.90
2018-09-20T11:59:55.939Z,62.60
2018-09-20T12:02:24.796Z,59.90
2018-09-20T12:04:53.447Z,59.90
2018-09-20T12:07:22.192Z,61.90
2018-09-20T12:09:50.856Z,62.60
2018-09-20T12:12:19.639Z,62.60
2018-09-20T12:14:48.725Z,63.20
2018-09-20T12:17:17.414Z,61.90
2018-09-20T12:19:46.167Z,62.40
2018-09-20T12:22:14.780Z,62.30
2018-09-20T12:24:43.319Z,62.30
2018-09-20T12:27:11.924Z,62.50
2018-09-20T12:29:40.456Z,63.50
2018-09-20T12:32:09.055Z,61.10
2018-09-20T12:34:37.633Z,62.90
2018-09-20T12:37:06.339Z,61.80
2018-09-20T12:39:34.874Z,62.00
2018-09-20T12:42:03.441Z,61.90
2018-09-20T12:44:32.165Z,62.50
2018-09-20T12:47:00.706Z,61.10
2018-09-20T12:49:29.239Z,61.20
2018-09-20T12:51:57.765Z,62.10
2018-09-20T12:54:26.323Z,60.90
2018-09-20T12:56:54.879Z,61.70
2018-09-20T12:59:23.418Z,60.60
2018-09-20T13:01:52.118Z,61.10
2018-09-20T13:04:20.679Z,60.50
2018-09-20T13:06:49.289Z,61.10
2018-09-20T13:09:17.834Z,61.00
2018-09-20T13:11:46.419Z,62.40
2018-09-20T13:14:14.948Z,61.30
2018-09-20T13:16:43.486Z,60.80
2018-09-20T13:19:12.246Z,60.90
2018-09-20T13:21:40.896Z,61.10
2018-09-20T13:24:09.781Z,60.70
2018-09-20T13:26:38.350Z,61.10
2018-09-20T13:29:07.017Z,61.50
2018-09-20T13:31:35.567Z,60.80
2018-09-20T13:34:04.151Z,61.20
2018-09-20T13:36:32.867Z,60.90
2018-09-20T13:39:01.438Z,61.30
2018-09-20T13:41:30.351Z,61.30
2018-09-20T13:43:58.919Z,61.00
2018-09-20T13:46:27.550Z,62.30
2018-09-20T13:48:56.119Z,62.00
2018-09-20T13:51:24.673Z,61.90
2018-09-20T13:53:53.915Z,62.80
2018-09-20T13:56:22.601Z,63.60
2018-09-20T13:58:51.184Z,63.50
2018-09-20T14:01:19.739Z,64.10
2018-09-20T14:03:48.367Z,64.20
2018-09-20T14:06:16.935Z,63.10
2018-09-20T14:08:45.967Z,62.80
2018-09-20T14:11:14.719Z,62.80
2018-09-20T14:13:43.303Z,63.30
2018-09-20T14:16:11.879Z,64.40
2018-09-20T14:18:40.435Z,62.10
2018-09-20T14:21:09.011Z,62.50
2018-09-20T14:23:37.551Z,63.30
2018-09-20T14:26:06.354Z,62.90
2018-09-20T14:28:35.210Z,65.10
2018-09-20T14:31:03.779Z,64.00
2018-09-20T14:33:32.311Z,64.20
2018-09-20T14:36:00.928Z,63.50
2018-09-20T14:38:29.463Z,62.20
2018-09-20T14:40:58.007Z,61.50
2018-09-20T14:43:26.546Z,61.20
2018-09-20T14:45:55.429Z,62.20
2018-09-20T14:48:23.983Z,63.00
2018-09-20T14:50:52.568Z,64.10
2018-09-20T14:53:21.195Z,63.20
2018-09-20T14:55:49.876Z,63.30
2018-09-20T14:58:18.419Z,64.00
2018-09-20T15:00:46.986Z,63.30
2018-09-20T15:03:15.854Z,63.80
2018-09-20T15:05:44.394Z,63.60
2018-09-20T15:08:13.014Z,64.30
2018-09-20T15:10:41.574Z,64.20
2018-09-20T15:13:10.122Z,64.60
2018-09-20T15:15:38.667Z,64.80
2018-09-20T15:18:07.226Z,64.20
2018-09-20T15:20:36.082Z,65.60
2018-09-20T15:23:04.715Z,65.20
2018-09-20T15:25:33.269Z,67.10
2018-09-20T15:28:01.895Z,66.20
2018-09-20T15:30:30.527Z,65.90
2018-09-20T15:32:59.455Z,66.80
2018-09-20T15:35:28.037Z,66.60
2018-09-20T15:37:56.604Z,65.40
2018-09-20T15:40:25.195Z,65.80
2018-09-20T15:42:53.745Z,66.10
2018-09-20T15:45:22.459Z,67.70
2018-09-20T15:47:51.007Z,66.80
2018-09-20T15:50:19.568Z,66.90
2018-09-20T15:52:48.123Z,66.70
2018-09-20T15:55:16.667Z,67.60
2018-09-20T15:57:45.249Z,68.20
2018-09-20T16:00:14.275Z,68.00
2018-09-20T16:02:42.826Z,67.70
2018-09-20T16:05:11.546Z,68.20
2018-09-20T16:07:40.303Z,68.80
2018-09-20T16:10:08.981Z,69.00
2018-09-20T16:12:37.868Z,68.70
2018-09-20T16:15:06.788Z,69.50
2018-09-20T16:17:35.360Z,69.30
2018-09-20T16:20:03.993Z,70.90
2018-09-20T16:22:32.559Z,70.00
2018-09-20T16:25:01.101Z,70.20
2018-09-20T16:27:29.655Z,70.40
2018-09-20T16:30:21.064Z,70.30
2018-09-20T16:35:21.739Z,71.00
2018-09-20T16:38:06.351Z,71.60
2018-09-20T16:40:38.055Z,72.00
2018-09-20T16:43:06.914Z,72.10
2018-09-20T16:45:35.522Z,72.20
2018-09-20T16:48:04.122Z,72.90
2018-09-20T16:50:32.658Z,73.10
2018-09-20T16:53:01.237Z,72.20
2018-09-20T16:55:29.939Z,72.60
2018-09-20T16:57:58.574Z,73.50
2018-09-20T17:00:27.131Z,73.40
2018-09-20T17:02:55.675Z,72.90
2018-09-20T17:05:24.223Z,71.80
2018-09-20T17:07:52.884Z,72.20
2018-09-20T17:10:21.455Z,72.00
2018-09-20T17:12:50.128Z,72.20
2018-09-20T17:15:19.028Z,71.30
2018-09-20T17:17:47.570Z,70.80
2018-09-20T17:20:16.155Z,70.80
2018-09-20T17:22:45.035Z,70.60
2018-09-20T17:25:13.582Z,70.70
2018-09-20T17:27:42.156Z,70.60
2018-09-20T17:30:10.816Z,71.20
2018-09-20T17:32:39.397Z,71.90
2018-09-20T17:35:09.151Z,72.40
2018-09-20T17:37:41.163Z,72.70
2018-09-20T17:40:11.063Z,73.10
2018-09-20T17:42:40.646Z,74.00
2018-09-20T17:45:09.363Z,74.50
2018-09-20T17:47:37.924Z,75.00
2018-09-20T17:50:06.543Z,75.60
2018-09-20T17:52:36.236Z,76.30
2018-09-20T17:55:05.511Z,76.50
2018-09-20T17:57:35.788Z,77.00
2018-09-20T18:00:04.409Z,76.40
2018-09-20T18:02:33.694Z,75.80
2018-09-20T18:05:02.373Z,76.30
2018-09-20T18:07:30.919Z,76.90
2018-09-20T18:09:59.472Z,77.30
2018-09-20T18:12:28.027Z,77.50
2018-09-20T18:14:56.841Z,76.50
2018-09-20T18:17:25.439Z,76.40
2018-09-20T18:19:54.011Z,77.00
2018-09-20T18:22:22.562Z,76.80
2018-09-20T18:24:51.104Z,76.80
2018-09-20T18:27:19.716Z,76.90
2018-09-20T18:29:48.251Z,77.40
2018-09-20T18:32:17.070Z,77.80
2018-09-20T18:34:45.621Z,77.40
2018-09-20T18:37:14.164Z,77.40
2018-09-20T18:39:42.747Z,77.80
2018-09-20T18:42:11.307Z,77.20
2018-09-20T18:44:39.965Z,77.60
2018-09-20T18:47:08.511Z,78.10
2018-09-20T18:49:37.059Z,78.80
2018-09-20T18:52:05.595Z,79.40
2018-09-20T18:54:34.603Z,80.00
2018-09-20T18:57:03.298Z,80.00
2018-09-20T18:59:31.839Z,79.90
2018-09-20T19:02:00.509Z,80.60
2018-09-20T19:04:29.054Z,80.50
2018-09-20T19:06:57.596Z,81.10
2018-09-20T19:09:26.336Z,81.30
2018-09-20T19:11:54.902Z,82.00
2018-09-20T19:14:23.480Z,82.60
2018-09-20T19:16:52.051Z,82.40
2018-09-20T19:19:20.587Z,83.20
2018-09-20T19:21:49.412Z,83.50
2018-09-20T19:24:18.238Z,84.30
2018-09-20T19:26:46.830Z,84.30
2018-09-20T19:29:15.372Z,85.50
2018-09-20T19:31:43.916Z,85.60
2018-09-20T19:34:12.459Z,86.20
2018-09-20T19:36:41.334Z,87.00
2018-09-20T19:39:11.445Z,87.30
2018-09-20T19:41:40.313Z,88.10
2018-09-20T19:44:08.845Z,88.60
2018-09-20T19:46:37.391Z,89.40
2018-09-20T19:49:05.965Z,90.10
2018-09-20T19:51:34.517Z,90.20
2018-09-20T19:54:03.284Z,90.30
2018-09-20T19:56:31.831Z,90.00
2018-09-20T19:59:00.395Z,88.70
2018-09-20T20:01:28.952Z,89.70
2018-09-20T20:03:57.505Z,90.20
2018-09-20T20:06:26.044Z,90.30
2018-09-20T20:08:54.592Z,90.30
2018-09-20T20:11:23.449Z,90.60
2018-09-20T20:13:52.237Z,89.30
2018-09-20T20:16:20.855Z,89.20
2018-09-20T20:18:49.423Z,88.70
2018-09-20T20:21:17.986Z,89.00
2018-09-20T20:23:46.691Z,88.90
2018-09-20T20:26:15.231Z,89.60
2018-09-20T20:28:43.805Z,90.30
2018-09-20T20:31:12.342Z,90.70
2018-09-20T20:33:40.899Z,91.20
2018-09-20T20:36:09.589Z,91.80
2018-09-20T20:38:38.207Z,92.40
2018-09-20T20:41:06.787Z,92.90
2018-09-20T20:43:35.320Z,93.30
2018-09-20T20:46:03.934Z,94.10
2018-09-20T20:48:32.733Z,94.70
2018-09-20T20:51:01.455Z,95.30
2018-09-20T20:53:29.987Z,95.80
2018-09-20T20:55:58.524Z,96.40
2018-09-20T20:58:27.190Z,97.20
2018-09-20T21:00:55.731Z,97.60
2018-09-20T21:03:24.274Z,98.40
2018-09-20T21:05:53.123Z,98.60
2018-09-20T21:08:21.667Z,99.40
2018-09-20T21:10:50.524Z,99.60
2018-09-20T21:13:19.066Z,99.90
2018-09-20T21:15:47.613Z,99.90
2018-09-20T21:18:16.143Z,99.90
2018-09-20T21:20:44.910Z,99.90
2018-09-20T21:23:13.567Z,99.90
2018-09-20T21:25:42.107Z,99.90
2018-09-20T21:28:10.646Z,99.90
2018-09-20T21:30:39.191Z,99.90
2018-09-20T21:33:07.794Z,99.90
2018-09-20T21:35:36.334Z,99.90
2018-09-20T21:38:04.899Z,99.90
2018-09-20T21:40:33.463Z,99.90
2018-09-20T21:43:02.047Z,99.90
2018-09-20T21:45:30.587Z,99.90
2018-09-20T21:47:59.180Z,99.90
2018-09-20T21:50:27.719Z,99.90
2018-09-20T21:52:56.715Z,99.90
2018-09-20T21:55:25.251Z,99.90
2018-09-20T21:57:53.793Z,99.90
2018-09-20T22:00:22.415Z,99.90
2018-09-20T22:02:56.327Z,99.90
2018-09-20T22:05:24.919Z,99.90
2018-09-20T22:07:53.446Z,99.90
2018-09-20T22:10:22.246Z,99.90
2018-09-20T22:12:50.797Z,99.90
2018-09-20T22:15:25.060Z,99.90
2018-09-20T22:17:54.521Z,99.90
2018-09-20T22:20:24.286Z,99.90
2018-09-20T22:22:53.117Z,99.90
2018-09-20T22:25:21.911Z,99.90
2018-09-20T22:27:50.451Z,99.90
2018-09-20T22:30:18.989Z,99.90
2018-09-20T22:32:47.855Z,99.90
2018-09-20T22:35:16.403Z,99.90
2018-09-20T22:37:45.055Z,99.90
2018-09-20T22:40:13.638Z,99.90
2018-09-20T22:42:42.180Z,99.90
2018-09-20T22:45:10.827Z,99.90
2018-09-20T22:47:39.379Z,99.90
2018-09-20T22:50:08.075Z,99.90
2018-09-20T22:52:36.678Z,99.90
2018-09-20T22:55:05.263Z,99.90
2018-09-20T22:57:33.803Z,99.90
2018-09-20T23:00:02.715Z,99.90
2018-09-20T23:02:31.259Z,99.90
2018-09-20T23:04:59.859Z,99.90
2018-09-20T23:07:28.447Z,99.90
2018-09-20T23:09:57.099Z,99.90
2018-09-20T23:12:25.701Z,99.90
2018-09-20T23:14:54.236Z,99.90
2018-09-20T23:17:22.818Z,99.90
2018-09-20T23:19:51.360Z,99.90
2018-09-20T23:22:19.987Z,99.90
2018-09-20T23:24:48.523Z,99.90
2018-09-20T23:27:17.144Z,99.90
2018-09-20T23:29:45.683Z,99.90
2018-09-20T23:32:14.463Z,99.90
2018-09-20T23:34:43.015Z,99.90
2018-09-20T23:37:11.573Z,99.90
2018-09-20T23:39:40.523Z,99.90
2018-09-20T23:42:09.067Z,99.90
2018-09-20T23:44:37.605Z,99.90
2018-09-20T23:47:06.143Z,99.90
2018-09-20T23:49:34.679Z,99.90
2018-09-20T23:52:03.290Z,99.90
2018-09-20T23:54:31.840Z,99.90
2018-09-20T23:57:00.483Z,99.90
2018-09-20T23:59:29.025Z,99.90
